Time;durP1;ratioP1;P1;durP2;ratioP2;P2;SDS_P1;SDS_P2;PMS_P1;PMS_P2;Temp;Humidity;BMP_temperature;BMP_pressure;BME280_temperature;BME280_humidity;BME280_pressure;Samples;Min_cycle;Max_cycle;Signal;HPM_P1;HPM_P2
2021/12/04 00:02:06;;;;;;;;;4.00;2.00;;;;;20.66;39.61;99478.03;5082016;27;51169;-40
2021/12/04 00:04:37;;;;;;;;;4.25;2.00;;;;;20.62;39.51;99461.19;5096030;27;52758;-41
2021/12/04 00:07:05;;;;;;;;;3.00;2.00;;;;;20.61;39.77;99447.69;5071257;27;50876;-40
2021/12/04 00:09:31;;;;;;;;;1.75;1.75;;;;;20.60;39.50;99451.53;5092660;27;51070;-40
2021/12/04 00:12:01;;;;;;;;;3.00;2.75;;;;;20.59;39.44;99450.69;5083452;27;52285;-39
2021/12/04 00:14:27;;;;;;;;;0.75;0.75;;;;;20.59;39.56;99444.38;5068856;27;51955;-40
2021/12/04 00:16:54;;;;;;;;;1.75;1.75;;;;;20.56;39.68;99437.47;5083474;27;51170;-40
2021/12/04 00:19:21;;;;;;;;;2.00;2.00;;;;;20.56;39.63;99428.38;5090353;27;51747;-40
2021/12/04 00:21:47;;;;;;;;;2.25;1.50;;;;;20.54;39.86;99433.31;5076824;27;51072;-40
2021/12/04 00:24:12;;;;;;;;;1.00;1.00;;;;;20.54;39.75;99430.56;5076552;27;51754;-40
2021/12/04 00:26:38;;;;;;;;;2.00;2.00;;;;;20.52;39.80;99424.47;5081963;27;52312;-41
2021/12/04 00:29:04;;;;;;;;;1.75;1.75;;;;;20.51;39.69;99415.38;5095929;27;51018;-41
2021/12/04 00:31:31;;;;;;;;;0.75;0.75;;;;;20.50;39.73;99416.47;5086602;27;50991;-42
2021/12/04 00:33:56;;;;;;;;;2.00;2.00;;;;;20.49;39.71;99416.72;5076183;27;51030;-41
2021/12/04 00:49:46;;;;;;;;;0.75;0.75;;;;;20.42;39.56;99397.63;5093520;27;51101;-41
2021/12/04 00:52:11;;;;;;;;;3.50;2.00;;;;;20.40;39.94;99394.31;5076919;27;51094;-41
2021/12/04 00:54:37;;;;;;;;;0.00;0.00;;;;;20.40;39.84;99399.81;5095799;27;52298;-41
2021/12/04 00:57:03;;;;;;;;;1.25;1.00;;;;;20.39;39.41;99395.41;5101435;27;51218;-41
2021/12/04 00:59:29;;;;;;;;;1.25;1.25;;;;;20.38;39.82;99394.56;5084154;27;50909;-41
2021/12/04 01:01:55;;;;;;;;;1.00;1.00;;;;;20.38;39.83;99389.06;5093219;27;51000;-41
2021/12/04 01:04:23;;;;;;;;;1.00;1.00;;;;;20.37;40.14;99395.66;5083159;27;51571;-41
2021/12/04 01:06:49;;;;;;;;;0.50;0.00;;;;;20.36;40.37;99399.50;5089412;27;51268;-40
2021/12/04 01:09:20;;;;;;;;;1.00;1.00;;;;;20.35;40.01;99389.59;5091812;27;51008;-41
2021/12/04 01:11:47;;;;;;;;;2.50;2.00;;;;;20.35;39.69;99395.09;5080069;27;51113;-41
2021/12/04 01:14:17;;;;;;;;;0.00;0.00;;;;;20.34;39.84;99381.59;5079365;27;51890;-41
2021/12/04 01:16:43;;;;;;;;;0.00;0.00;;;;;20.33;40.24;99396.44;5079798;27;51236;-41
2021/12/04 01:19:08;;;;;;;;;1.00;0.75;;;;;20.33;40.08;99390.94;5084443;27;50940;-41
2021/12/04 01:21:35;;;;;;;;;0.00;0.00;;;;;20.32;39.79;99387.38;5089511;27;50901;-40
2021/12/04 01:24:00;;;;;;;;;1.00;0.50;;;;;20.32;40.02;99387.38;5079351;27;51803;-41
2021/12/04 01:26:26;;;;;;;;;1.50;0.00;;;;;20.31;39.90;99385.66;5084546;27;50906;-41
2021/12/04 01:28:51;;;;;;;;;0.00;0.00;;;;;20.30;39.96;99392.25;5083306;27;51001;-40
2021/12/04 01:31:18;;;;;;;;;0.00;0.00;;;;;20.29;39.86;99393.34;5079959;27;51097;-41
2021/12/04 01:33:44;;;;;;;;;1.25;0.00;;;;;20.29;40.02;99403.53;5076734;27;52809;-42
2021/12/04 01:36:09;;;;;;;;;0.25;0.25;;;;;20.28;40.49;99391.69;5078399;27;51092;-44
2021/12/04 01:38:35;;;;;;;;;0.75;0.75;;;;;20.28;40.06;99394.44;5080289;27;51374;-41
2021/12/04 01:41:01;;;;;;;;;0.00;0.00;;;;;20.27;40.22;99398.28;5081363;27;51086;-41
2021/12/04 01:43:26;;;;;;;;;0.50;0.00;;;;;20.26;40.06;99401.28;5082920;27;51878;-41
2021/12/04 01:45:55;;;;;;;;;0.00;0.00;;;;;20.26;40.15;99395.78;5080627;27;52144;-42
2021/12/04 01:48:22;;;;;;;;;0.25;0.25;;;;;20.25;39.83;99399.63;5074889;27;51420;-41
2021/12/04 01:50:48;;;;;;;;;1.75;0.75;;;;;20.25;40.12;99407.88;5077513;27;51124;-41
2021/12/04 01:53:13;;;;;;;;;0.00;0.00;;;;;20.25;40.22;99413.38;5071341;27;51242;-41
2021/12/04 01:55:39;;;;;;;;;0.00;0.00;;;;;20.23;40.53;99410.06;5072076;27;51000;-41
2021/12/04 01:58:05;;;;;;;;;0.50;0.00;;;;;20.23;40.66;99415.56;5086776;27;51191;-41
2021/12/04 02:00:34;;;;;;;;;1.00;0.00;;;;;20.22;40.55;99411.97;5075694;27;51301;-41
2021/12/04 02:03:02;;;;;;;;;0.00;0.00;;;;;20.22;40.25;99411.97;5076339;27;52101;-41
2021/12/04 02:05:27;;;;;;;;;0.00;0.00;;;;;20.22;40.63;99411.13;5077826;27;51290;-40
2021/12/04 02:07:53;;;;;;;;;0.50;0.00;;;;;20.22;40.31;99413.88;5083861;27;51081;-40
2021/12/04 02:10:18;;;;;;;;;0.00;0.00;;;;;20.19;40.58;99413.28;5073282;27;51364;-41
2021/12/04 02:12:43;;;;;;;;;0.00;0.00;;;;;20.18;40.35;99419.88;5076628;27;51950;-40
2021/12/04 02:15:15;;;;;;;;;0.00;0.00;;;;;20.18;39.89;99410.81;5082574;27;50955;-41
2021/12/04 02:17:41;;;;;;;;;0.75;0.75;;;;;20.17;40.18;99401.72;5081212;27;50995;-41
2021/12/04 02:20:10;;;;;;;;;0.00;0.00;;;;;20.16;39.98;99413.81;5085834;27;51105;-40
2021/12/04 02:22:35;;;;;;;;;0.00;0.00;;;;;20.16;40.39;99402.00;5076974;27;51805;-40
2021/12/04 02:25:01;;;;;;;;;0.00;0.00;;;;;20.13;40.23;99403.34;5083212;27;51459;-41
2021/12/04 02:27:26;;;;;;;;;0.00;0.00;;;;;20.14;40.05;99402.25;5090001;27;51437;-40
2021/12/04 02:29:52;;;;;;;;;0.00;0.00;;;;;20.13;40.43;99410.75;5078758;27;51411;-40
2021/12/04 02:32:20;;;;;;;;;0.00;0.00;;;;;20.11;40.14;99413.75;5077584;27;51176;-41
2021/12/04 02:34:46;;;;;;;;;0.00;0.00;;;;;20.11;40.00;99416.50;5076458;27;51296;-41
2021/12/04 02:37:11;;;;;;;;;0.75;0.00;;;;;20.11;40.24;99407.41;5077080;27;51365;-41
2021/12/04 02:39:42;;;;;;;;;0.00;0.00;;;;;20.10;40.27;99409.31;5077308;27;51101;-41
2021/12/04 02:42:21;;;;;;;;;0.00;0.00;;;;;20.09;40.15;99404.09;5074688;27;51617;-40
2021/12/04 02:44:48;;;;;;;;;0.00;0.00;;;;;20.08;40.16;99403.25;5084404;27;51291;-40
2021/12/04 02:47:14;;;;;;;;;0.00;0.00;;;;;20.07;40.32;99407.09;5078673;27;51037;-40
2021/12/04 02:49:40;;;;;;;;;0.00;0.00;;;;;20.07;40.12;99398.00;5077507;27;51375;-40
2021/12/04 02:52:08;;;;;;;;;0.00;0.00;;;;;20.06;40.45;99407.34;5078647;27;51718;-40
2021/12/04 02:54:34;;;;;;;;;0.00;0.00;;;;;20.05;40.17;99400.19;5079723;27;51244;-41
2021/12/04 02:57:00;;;;;;;;;0.00;0.00;;;;;20.04;40.24;99399.34;5076417;27;51054;-40
2021/12/04 02:59:26;;;;;;;;;0.00;0.00;;;;;20.04;40.11;99410.34;5089980;27;51510;-41
2021/12/04 03:01:56;;;;;;;;;0.00;0.00;;;;;20.03;40.59;99397.69;5074951;27;51685;-40
2021/12/04 03:04:24;;;;;;;;;0.00;0.00;;;;;20.03;40.38;99416.13;5077555;27;51429;-41
2021/12/04 03:06:50;;;;;;;;;0.00;0.00;;;;;20.03;40.28;99413.38;5073839;27;51285;-41
2021/12/04 03:09:16;;;;;;;;;0.00;0.00;;;;;20.01;40.25;99419.13;5085857;27;51008;-41
2021/12/04 03:11:41;;;;;;;;;0.00;0.00;;;;;20.01;40.53;99410.88;5079385;27;51064;-41
2021/12/04 03:14:08;;;;;;;;;0.00;0.00;;;;;20.00;40.84;99411.94;5080055;27;51070;-40
2021/12/04 03:16:35;;;;;;;;;0.00;0.00;;;;;20.00;40.13;99413.84;5097575;27;51094;-41
2021/12/04 03:19:02;;;;;;;;;1.50;0.00;;;;;19.99;40.80;99401.19;5077274;27;51161;-40
2021/12/04 03:21:28;;;;;;;;;0.00;0.00;;;;;19.99;40.57;99407.53;5079758;27;52809;-42
2021/12/04 03:24:01;;;;;;;;;0.75;0.75;;;;;19.99;40.40;99402.03;5074967;27;50995;-42
2021/12/04 03:26:27;;;;;;;;;0.00;0.00;;;;;19.98;40.37;99411.34;5075598;27;51236;-42
2021/12/04 03:28:54;;;;;;;;;0.00;0.00;;;;;19.97;40.19;99415.19;5081909;27;51536;-40
2021/12/04 03:42:07;;;;;;;;;0.00;0.00;;;;;19.94;40.73;99403.88;5075816;27;51480;-40
2021/12/04 03:44:32;;;;;;;;;0.00;0.00;;;;;19.93;40.24;99408.56;5075570;27;51048;-41
2021/12/04 03:46:59;;;;;;;;;0.00;0.00;;;;;19.94;40.61;99403.88;5098246;27;51008;-41
2021/12/04 03:49:25;;;;;;;;;0.00;0.00;;;;;19.93;40.30;99403.06;5078088;27;51384;-41
2021/12/04 03:51:50;;;;;;;;;0.25;0.00;;;;;19.92;40.62;99400.56;5080025;27;52079;-41
2021/12/04 03:54:16;;;;;;;;;0.00;0.00;;;;;19.91;40.63;99405.22;5072886;27;51383;-41
2021/12/04 03:56:42;;;;;;;;;0.00;0.00;;;;;19.91;40.88;99407.97;5074877;27;51031;-41
2021/12/04 03:59:08;;;;;;;;;0.00;0.00;;;;;19.91;40.37;99402.47;5074346;27;51304;-40
2021/12/04 04:01:33;;;;;;;;;0.00;0.00;;;;;19.91;40.60;99407.97;5080691;27;51715;-44
2021/12/04 04:03:58;;;;;;;;;0.00;0.00;;;;;19.90;40.31;99403.53;5075974;27;51335;-41
2021/12/04 04:06:24;;;;;;;;;0.75;0.00;;;;;19.90;40.73;99409.03;5091737;27;51296;-41
2021/12/04 04:08:49;;;;;;;;;1.00;0.00;;;;;19.89;40.65;99410.94;5077268;27;51047;-40
2021/12/04 04:11:15;;;;;;;;;0.00;0.00;;;;;19.89;40.53;99412.88;5079629;27;51705;-40
2021/12/04 04:13:42;;;;;;;;;0.25;0.00;;;;;19.89;40.92;99404.63;5076333;27;51058;-41
2021/12/04 04:16:07;;;;;;;;;0.50;0.50;;;;;19.88;40.92;99411.22;5076524;27;50905;-41
2021/12/04 04:18:33;;;;;;;;;0.00;0.00;;;;;19.89;40.48;99412.88;5077055;27;51286;-41
2021/12/04 04:20:59;;;;;;;;;0.00;0.00;;;;;19.88;40.43;99419.44;5075897;27;52746;-40
2021/12/04 04:23:25;;;;;;;;;0.00;0.00;;;;;19.87;40.55;99409.56;5074247;27;51091;-41
2021/12/04 04:25:51;;;;;;;;;0.00;0.00;;;;;19.86;40.60;99416.13;5079596;27;50838;-40
2021/12/04 04:28:16;;;;;;;;;1.00;0.00;;;;;19.87;40.71;99412.28;5081483;27;51021;-41
2021/12/04 04:30:42;;;;;;;;;1.00;1.00;;;;;19.86;40.55;99403.22;5079880;27;51223;-41
2021/12/04 04:33:09;;;;;;;;;0.00;0.00;;;;;19.86;40.56;99413.38;5080745;27;51121;-41
2021/12/04 04:35:36;;;;;;;;;1.00;0.00;;;;;19.83;40.74;99411.97;5079709;27;51161;-41
2021/12/04 04:38:17;;;;;;;;;0.25;0.00;;;;;19.85;40.55;99422.72;5090923;27;51157;-41
2021/12/04 05:12:51;;;;;;;;;0.00;0.00;;;;;19.77;40.79;99387.41;5079474;27;51671;-40
2021/12/04 05:15:35;;;;;;;;;0.00;0.00;;;;;19.76;40.85;99385.75;5079508;27;51413;-39
2021/12/04 05:20:36;;;;;;;;;0.00;0.00;;;;;19.75;40.68;99386.84;5076308;27;51114;-40
2021/12/04 05:23:02;;;;;;;;;0.00;0.00;;;;;19.76;40.44;99391.25;5093118;27;51076;-40
2021/12/04 05:25:29;;;;;;;;;0.00;0.00;;;;;19.75;40.46;99389.59;5079252;27;51396;-40
2021/12/04 05:27:55;;;;;;;;;0.00;0.00;;;;;19.75;40.54;99386.84;5091790;27;51093;-40
2021/12/04 05:30:20;;;;;;;;;0.00;0.00;;;;;19.74;40.88;99388.75;5080396;27;51457;-40
2021/12/04 05:32:46;;;;;;;;;0.25;0.00;;;;;19.73;41.22;99387.09;5090474;27;51924;-40
2021/12/04 05:35:11;;;;;;;;;0.00;0.00;;;;;19.74;40.20;99387.94;5097366;27;51008;-41
2021/12/04 05:37:37;;;;;;;;;0.00;0.00;;;;;19.73;40.64;99384.34;5091272;27;51553;-40
2021/12/04 05:40:03;;;;;;;;;0.00;0.00;;;;;19.73;40.92;99384.34;5081119;27;51588;-41
2021/12/04 05:42:29;;;;;;;;;0.00;0.00;;;;;19.73;40.77;99383.53;5094911;27;51840;-41
2021/12/04 05:44:55;;;;;;;;;0.00;0.00;;;;;19.72;40.74;99379.13;5087358;27;51068;-43
2021/12/04 05:47:25;;;;;;;;;0.00;0.00;;;;;19.72;40.31;99384.59;5087091;27;51087;-41
2021/12/04 05:50:01;;;;;;;;;0.00;0.00;;;;;19.72;40.78;99384.59;5098338;27;50927;-40
2021/12/04 05:52:40;;;;;;;;;0.00;0.00;;;;;19.71;40.69;99397.50;5095418;27;52794;-41
2021/12/04 05:55:15;;;;;;;;;0.25;0.25;;;;;19.72;40.42;99390.09;5075829;27;51232;-40
2021/12/04 05:57:40;;;;;;;;;1.00;0.00;;;;;19.70;40.52;99393.09;5091707;27;52500;-41
2021/12/04 06:00:11;;;;;;;;;0.00;0.00;;;;;19.70;40.57;99397.78;5073881;27;51040;-40
2021/12/04 06:02:37;;;;;;;;;0.00;0.00;;;;;19.69;40.84;99396.91;5093085;27;51879;-42
2021/12/04 06:05:03;;;;;;;;;0.00;0.00;;;;;19.70;40.86;99395.03;5098317;27;50987;-42
2021/12/04 06:07:28;;;;;;;;;0.00;0.00;;;;;19.68;40.81;99395.25;5084052;27;51089;-40
2021/12/04 06:09:53;;;;;;;;;1.50;0.00;;;;;19.68;40.77;99384.25;5072088;27;51240;-40
2021/12/04 06:12:19;;;;;;;;;0.00;0.00;;;;;19.67;40.80;99390.00;5092476;27;51854;-40
2021/12/04 06:14:46;;;;;;;;;0.00;0.00;;;;;19.68;40.38;99394.41;5087913;27;51126;-40
2021/12/04 06:17:12;;;;;;;;;1.00;0.00;;;;;19.66;40.67;99383.69;5082032;27;50976;-41
2021/12/04 06:22:37;;;;;;;;;0.00;0.00;;;;;19.66;40.79;99382.84;5086181;27;50950;-40
2021/12/04 06:25:04;;;;;;;;;0.00;0.00;;;;;19.65;40.54;99379.28;5076845;27;51161;-41
2021/12/04 06:27:30;;;;;;;;;0.00;0.00;;;;;19.64;40.73;99377.63;5093406;27;51176;-41
2021/12/04 06:29:55;;;;;;;;;0.00;0.00;;;;;19.65;40.46;99375.69;5093695;27;50997;-42
2021/12/04 06:32:21;;;;;;;;;0.00;0.00;;;;;19.65;40.65;99364.72;5078024;27;51526;-41
2021/12/04 06:34:46;;;;;;;;;1.00;0.00;;;;;19.64;40.69;99363.88;5078341;27;50851;-40
2021/12/04 06:37:11;;;;;;;;;0.00;0.00;;;;;19.64;40.50;99358.38;5099894;27;51094;-41
2021/12/04 06:39:37;;;;;;;;;0.00;0.00;;;;;19.62;40.75;99357.81;5084462;27;50913;-42
2021/12/04 06:42:02;;;;;;;;;0.00;0.00;;;;;19.62;40.89;99359.72;5090369;27;50889;-42
2021/12/04 06:44:27;;;;;;;;;0.00;0.00;;;;;19.63;40.80;99361.41;5079898;27;51106;-44
2021/12/04 06:46:54;;;;;;;;;0.00;0.00;;;;;19.63;40.75;99364.13;5083423;27;50977;-41
2021/12/04 06:49:27;;;;;;;;;1.00;0.00;;;;;19.61;40.52;99353.41;5091509;27;51310;-41
2021/12/04 06:51:56;;;;;;;;;0.00;0.00;;;;;19.62;40.97;99357.00;5077125;27;52010;-41
2021/12/04 06:54:26;;;;;;;;;1.00;0.00;;;;;19.62;40.94;99355.06;5074142;27;51150;-43
2021/12/04 06:56:51;;;;;;;;;0.00;0.00;;;;;19.61;40.57;99356.16;5078047;27;51061;-41
2021/12/04 06:59:24;;;;;;;;;0.00;0.00;;;;;19.60;40.88;99349.84;5077022;27;51451;-41
2021/12/04 07:01:50;;;;;;;;;0.50;0.00;;;;;19.60;40.90;99355.31;5080433;27;52050;-41
2021/12/04 07:04:17;;;;;;;;;0.00;0.00;;;;;19.60;40.81;99349.84;5097626;27;51065;-41
2021/12/04 07:06:45;;;;;;;;;0.00;0.00;;;;;19.60;40.87;99340.75;5082368;27;51364;-42
2021/12/04 07:09:11;;;;;;;;;0.00;0.00;;;;;19.59;40.53;99350.91;5088469;27;51166;-41
2021/12/04 07:11:36;;;;;;;;;1.00;0.00;;;;;19.57;40.90;99347.56;5096652;27;51779;-41
2021/12/04 07:14:02;;;;;;;;;0.00;0.00;;;;;19.58;40.79;99346.47;5076204;27;51084;-41
2021/12/04 07:16:28;;;;;;;;;0.25;0.00;;;;;19.58;40.80;99330.00;5076101;27;51117;-41
2021/12/04 07:18:53;;;;;;;;;0.00;0.00;;;;;19.58;40.83;99343.72;5090333;27;51062;-41
2021/12/04 07:21:20;;;;;;;;;0.00;0.00;;;;;19.57;40.70;99344.81;5078368;27;51860;-41
2021/12/04 07:23:46;;;;;;;;;0.00;0.00;;;;;19.57;40.67;99344.81;5076515;27;51336;-41
2021/12/04 07:26:11;;;;;;;;;0.00;0.00;;;;;19.56;41.03;99337.66;5074181;27;51093;-41
2021/12/04 07:28:37;;;;;;;;;0.00;0.00;;;;;19.56;41.12;99339.59;5088599;27;51271;-41
2021/12/04 07:31:03;;;;;;;;;0.00;0.00;;;;;19.55;41.45;99347.00;5090559;27;53519;-41
2021/12/04 07:33:29;;;;;;;;;0.00;0.00;;;;;19.54;41.76;99334.31;5077945;27;51193;-40
2021/12/04 07:35:54;;;;;;;;;0.00;0.00;;;;;19.53;42.06;99340.91;5077760;27;51043;-41
2021/12/04 07:38:19;;;;;;;;;2.75;0.00;;;;;19.54;42.83;99344.47;5083450;27;51056;-41
2021/12/04 07:40:45;;;;;;;;;0.00;0.00;;;;;19.52;43.10;99341.97;5090682;27;53113;-41
2021/12/04 07:43:12;;;;;;;;;0.00;0.00;;;;;19.51;43.82;99347.72;5086782;27;51054;-41
2021/12/04 07:45:38;;;;;;;;;1.00;0.00;;;;;19.48;44.09;99343.56;5074273;27;51383;-40
2021/12/04 07:48:04;;;;;;;;;0.00;0.00;;;;;19.48;43.92;99339.97;5071353;27;51210;-39
2021/12/04 07:50:30;;;;;;;;;0.00;0.00;;;;;19.46;44.34;99332.00;5070425;27;51796;-43
2021/12/04 07:52:56;;;;;;;;;0.50;0.50;;;;;19.47;44.58;99338.31;5071672;27;50904;-39
2021/12/04 07:55:22;;;;;;;;;0.00;0.00;;;;;19.52;44.71;99338.41;5092483;27;50926;-40
2021/12/04 07:57:47;;;;;;;;;0.50;0.00;;;;;19.58;44.61;99335.50;5072969;27;51244;-42
2021/12/04 08:00:16;;;;;;;;;0.00;0.00;;;;;19.69;44.44;99339.22;5068679;27;51627;-39
2021/12/04 08:02:42;;;;;;;;;1.00;0.00;;;;;19.79;44.60;99338.53;5080385;27;51078;-41
2021/12/04 08:05:09;;;;;;;;;0.50;0.25;;;;;19.88;44.36;99346.09;5078315;27;51872;-41
2021/12/04 08:07:35;;;;;;;;;0.00;0.00;;;;;19.98;44.44;99348.13;5077263;27;50861;-41
2021/12/04 08:10:00;;;;;;;;;0.00;0.00;;;;;20.08;43.92;99339.19;5073785;27;51983;-43
2021/12/04 08:12:26;;;;;;;;;2.00;0.00;;;;;20.18;44.08;99333.81;5073896;27;51212;-41
2021/12/04 08:14:53;;;;;;;;;2.25;0.50;;;;;20.27;43.39;99350.72;5075279;27;51114;-43
2021/12/04 08:17:19;;;;;;;;;0.75;0.75;;;;;20.35;43.52;99351.09;5072511;27;51336;-41
2021/12/04 08:19:45;;;;;;;;;0.00;0.00;;;;;20.43;43.77;99342.41;5081478;27;51133;-43
2021/12/04 08:22:10;;;;;;;;;0.50;0.00;;;;;20.52;43.58;99356.53;5071790;27;51085;-40
2021/12/04 08:24:35;;;;;;;;;0.00;0.00;;;;;20.59;43.70;99361.84;5074906;27;52410;-41
2021/12/04 08:27:02;;;;;;;;;1.00;0.00;;;;;20.66;43.71;99362.47;5072642;27;51253;-43
2021/12/04 08:29:28;;;;;;;;;0.00;0.00;;;;;20.73;43.44;99363.91;5072925;27;51640;-41
2021/12/04 08:31:53;;;;;;;;;3.25;0.00;;;;;20.80;43.01;99360.94;5075582;27;51126;-41
2021/12/04 08:34:20;;;;;;;;;0.25;0.00;;;;;20.88;42.89;99359.66;5074638;27;50938;-41
2021/12/04 08:36:46;;;;;;;;;0.50;0.00;;;;;20.94;42.80;99364.94;5078074;27;51098;-43
2021/12/04 08:39:11;;;;;;;;;0.00;0.00;;;;;21.01;42.90;99375.75;5075853;27;51890;-41
2021/12/04 08:41:37;;;;;;;;;0.00;0.00;;;;;21.08;43.17;99368.09;5076011;27;50996;-43
2021/12/04 08:44:03;;;;;;;;;0.00;0.00;;;;;21.17;43.03;99385.00;5072352;27;51172;-44
2021/12/04 08:46:29;;;;;;;;;0.50;0.00;;;;;21.20;42.46;99378.94;5079907;27;51003;-45
2021/12/04 08:48:55;;;;;;;;;0.00;0.00;;;;;21.21;42.71;99388.88;5073829;27;52946;-43
2021/12/04 08:51:22;;;;;;;;;1.00;0.50;;;;;21.20;43.13;99390.78;5081140;27;51205;-46
2021/12/04 08:53:52;;;;;;;;;0.00;0.00;;;;;21.20;43.62;99401.81;5077391;27;52662;-43
2021/12/04 08:56:20;;;;;;;;;0.00;0.00;;;;;21.18;43.33;99398.50;5078755;27;51330;-44
2021/12/04 08:58:45;;;;;;;;;0.00;0.00;;;;;21.17;43.32;99393.25;5071783;27;51206;-41
2021/12/04 09:01:25;;;;;;;;;0.25;0.25;;;;;21.19;43.81;99413.91;5080411;27;51292;-44
2021/12/04 09:03:55;;;;;;;;;1.00;1.00;;;;;21.24;43.58;99402.94;5074864;27;51239;-41
2021/12/04 09:06:21;;;;;;;;;0.00;0.00;;;;;21.30;43.19;99420.38;5072661;27;51099;-44
2021/12/04 09:08:46;;;;;;;;;2.50;1.25;;;;;21.39;42.75;99412.47;5073184;27;51053;-44
2021/12/04 09:11:18;;;;;;;;;2.00;2.00;;;;;21.43;42.64;99425.44;5086482;27;51382;-41
2021/12/04 09:13:47;;;;;;;;;4.00;3.00;;;;;21.50;42.74;99428.00;5109321;27;50939;-44
2021/12/04 09:16:12;;;;;;;;;1.50;1.00;;;;;21.56;43.06;99444.28;5076758;27;51076;-43
2021/12/04 09:18:38;;;;;;;;;3.00;1.00;;;;;21.61;43.49;99432.50;5069596;27;51763;-43
2021/12/04 09:21:05;;;;;;;;;5.50;2.00;;;;;21.63;43.12;99438.56;5071078;27;51034;-43
2021/12/04 09:23:35;;;;;;;;;4.00;1.25;;;;;21.63;43.65;99438.56;5078420;27;51159;-45
2021/12/04 09:26:03;;;;;;;;;2.00;1.50;;;;;21.62;43.59;99442.41;5069673;27;52189;-45
2021/12/04 09:29:12;;;;;;;;;2.50;1.50;;;;;21.61;42.95;99447.09;5070515;27;52611;-44
2021/12/04 09:31:46;;;;;;;;;3.50;1.00;;;;;21.59;42.98;99448.47;5078838;27;51459;-47
2021/12/04 10:01:26;;;;;;;;;3.50;1.25;;;;;21.26;42.73;99501.88;5078415;28;51115;-43
2021/12/04 10:11:17;;;;;;;;;4.00;3.00;;;;;21.19;42.43;99514.97;5078322;27;50920;-43
2021/12/04 10:13:08;;;;;;;;;1.75;1.00;;;;;21.09;42.68;99532.22;5078548;28;51049;-43
2021/12/04 10:33:53;;;;;;;;;4.25;4.00;;;;;21.44;42.37;99555.75;5077665;28;51347;-43
2021/12/04 10:36:33;;;;;;;;;6.00;4.00;;;;;21.47;42.25;99547.00;5077587;28;50960;-41
2021/12/04 10:39:00;;;;;;;;;6.75;6.00;;;;;21.48;41.73;99560.50;5077986;27;51060;-41
2021/12/04 10:41:33;;;;;;;;;5.25;5.25;;;;;21.51;42.02;99556.38;5078533;27;50904;-42
2021/12/04 10:44:13;;;;;;;;;7.25;6.25;;;;;21.54;41.29;99555.84;5078147;27;52040;-43
2021/12/04 10:46:40;;;;;;;;;10.00;7.75;;;;;21.54;41.72;99555.84;5077477;27;51299;-43
2021/12/04 10:49:14;;;;;;;;;6.00;5.00;;;;;21.53;41.30;99554.19;5093770;27;51073;-43
2021/12/04 10:51:52;;;;;;;;;7.00;5.50;;;;;21.50;41.65;99566.59;5078132;27;51206;-42
2021/12/04 10:54:33;;;;;;;;;8.75;7.00;;;;;21.47;41.98;99566.28;5092185;27;52796;-44
2021/12/04 11:00:00;;;;;;;;;4.00;3.00;;;;;21.38;41.89;99587.13;5068882;28;50984;-45
2021/12/04 11:02:36;;;;;;;;;5.25;2.75;;;;;21.32;41.41;99581.53;5073439;27;51004;-42
2021/12/04 11:06:19;;;;;;;;;1.00;1.00;;;;;21.27;41.87;99592.50;5071667;27;51994;-50
2021/12/04 11:19:07;;;;;;;;;2.25;1.25;;;;;21.24;40.92;99579.19;5075853;28;51377;-42
2021/12/04 11:21:53;;;;;;;;;2.75;1.00;;;;;21.29;40.61;99587.56;5065092;27;51111;-42
2021/12/04 11:37:59;;;;;;;;;2.00;2.00;;;;;21.63;40.31;99619.59;5075895;27;50916;-41
2021/12/04 11:43:00;;;;;;;;;1.00;1.00;;;;;21.74;40.19;99618.63;5073896;28;51741;-42
2021/12/04 11:45:34;;;;;;;;;1.00;0.00;;;;;21.80;39.47;99645.16;5072674;28;51243;-41
2021/12/04 11:48:03;;;;;;;;;1.00;1.00;;;;;21.85;40.24;99623.97;5073663;28;51826;-41
2021/12/04 11:50:31;;;;;;;;;1.00;1.00;;;;;21.92;39.61;99628.47;5070703;27;51179;-41
2021/12/04 11:53:00;;;;;;;;;0.00;0.00;;;;;21.96;39.28;99644.22;5075091;27;51625;-39
2021/12/04 11:55:29;;;;;;;;;0.00;0.00;;;;;21.98;39.40;99649.44;5071647;27;51209;-42
2021/12/04 11:57:56;;;;;;;;;1.00;1.00;;;;;22.00;39.63;99650.88;5066303;28;51084;-41
2021/12/04 12:00:28;;;;;;;;;2.00;2.00;;;;;22.05;39.41;99650.09;5075188;28;51397;-41
2021/12/04 12:03:12;;;;;;;;;2.00;1.00;;;;;22.09;39.18;99651.25;5067634;28;51244;-44
2021/12/04 12:05:53;;;;;;;;;1.50;1.50;;;;;22.12;39.22;99650.75;5068623;27;51411;-41
2021/12/04 12:08:23;;;;;;;;;1.75;1.00;;;;;22.16;39.48;99649.94;5098023;27;51447;-41
2021/12/04 12:10:51;;;;;;;;;1.75;1.25;;;;;22.22;38.91;99656.34;5074092;27;51418;-42
2021/12/04 12:13:45;;;;;;;;;2.50;1.00;;;;;22.28;39.26;99663.56;5069305;28;51178;-41
2021/12/04 12:16:17;;;;;;;;;1.25;1.25;;;;;22.33;39.35;99663.63;5088059;27;51284;-41
2021/12/04 12:18:52;;;;;;;;;3.25;2.00;;;;;22.40;38.68;99671.66;5070231;27;51147;-41
2021/12/04 12:21:22;;;;;;;;;1.50;1.50;;;;;22.44;38.83;99664.53;5068140;27;51347;-41
2021/12/04 12:38:28;;;;;;;;;2.25;1.25;;;;;22.71;38.47;99726.00;5072876;27;51194;-43
2021/12/04 12:41:00;;;;;;;;;0.25;0.00;;;;;22.75;38.21;99732.69;5074968;28;51134;-43
2021/12/04 12:43:40;;;;;;;;;2.25;2.00;;;;;22.78;38.10;99731.31;5075465;27;51148;-43
2021/12/04 12:46:06;;;;;;;;;1.00;1.00;;;;;22.82;37.62;99746.25;5074430;28;51076;-42
2021/12/04 12:48:46;;;;;;;;;3.00;1.50;;;;;22.84;37.72;99744.13;5078996;27;51126;-41
2021/12/04 12:51:12;;;;;;;;;2.00;2.00;;;;;22.89;37.69;99749.66;5078698;27;51365;-54
2021/12/04 12:53:57;;;;;;;;;3.00;1.75;;;;;22.93;37.69;99749.97;5079228;27;50829;-53
2021/12/04 12:56:27;;;;;;;;;2.25;2.25;;;;;22.96;37.63;99754.97;5079749;28;51022;-41
2021/12/04 12:59:00;;;;;;;;;2.00;2.00;;;;;22.99;37.52;99759.94;5079122;27;51270;-44
2021/12/04 13:13:32;;;;;;;;;3.75;2.00;;;;;23.08;37.44;99760.28;5077742;28;50979;-42
2021/12/04 13:16:05;;;;;;;;;3.50;2.00;;;;;23.04;37.23;99768.28;5077781;27;51160;-42
2021/12/04 13:18:34;;;;;;;;;1.50;1.25;;;;;22.98;37.50;99769.34;5078906;27;51212;-41
2021/12/04 13:21:10;;;;;;;;;2.00;2.00;;;;;22.91;37.45;99761.25;5077450;27;51058;-45
2021/12/04 13:23:37;;;;;;;;;1.25;1.25;;;;;22.86;37.51;99761.25;5063346;27;51051;-42
2021/12/04 13:26:08;;;;;;;;;1.50;1.25;;;;;22.80;37.31;99764.19;5084529;27;51770;-43
2021/12/04 13:28:36;;;;;;;;;1.00;1.00;;;;;22.73;37.24;99768.00;5077894;27;51241;-42
2021/12/04 13:31:03;;;;;;;;;3.75;2.00;;;;;22.67;36.98;99771.81;5081683;27;51370;-41
2021/12/04 13:33:31;;;;;;;;;3.25;3.25;;;;;22.63;37.36;99767.91;5083177;27;52772;-43
2021/12/04 13:35:57;;;;;;;;;4.75;3.25;;;;;22.65;37.30;99781.47;5089663;27;51092;-43
2021/12/04 13:38:26;;;;;;;;;2.75;1.50;;;;;22.67;37.76;99776.50;5074159;27;51182;-42
2021/12/04 13:40:54;;;;;;;;;5.50;2.00;;;;;22.70;37.76;99781.50;5075418;27;51102;-44
2021/12/04 13:43:21;;;;;;;;;3.75;2.00;;;;;22.70;38.24;99774.03;5074407;27;51732;-41
2021/12/04 13:45:55;;;;;;;;;5.25;3.25;;;;;22.71;37.84;99781.22;5076630;27;52039;-45
2021/12/04 13:48:21;;;;;;;;;4.00;3.00;;;;;22.70;38.29;99767.69;5077786;27;51092;-44
2021/12/04 13:50:46;;;;;;;;;4.25;2.00;;;;;22.71;38.17;99764.66;5074766;27;51018;-41
2021/12/04 13:53:25;;;;;;;;;4.75;1.00;;;;;22.72;38.53;99760.00;5074125;27;51848;-44
2021/12/04 13:55:59;;;;;;;;;4.00;3.25;;;;;22.73;38.11;99772.69;5074521;27;51227;-44
2021/12/04 13:58:25;;;;;;;;;4.00;2.50;;;;;22.74;38.40;99763.31;5067967;27;51181;-43
2021/12/04 14:00:51;;;;;;;;;2.75;2.00;;;;;22.76;38.88;99769.41;5067544;27;51062;-43
2021/12/04 14:03:22;;;;;;;;;3.25;2.50;;;;;22.79;38.43;99770.81;5069305;27;51753;-46
2021/12/04 14:05:48;;;;;;;;;2.25;2.25;;;;;22.81;38.90;99771.38;5072313;27;51479;-42
2021/12/04 14:08:13;;;;;;;;;6.00;3.25;;;;;22.83;38.98;99761.75;5068143;27;52863;-45
2021/12/04 14:10:42;;;;;;;;;1.50;1.50;;;;;22.87;38.61;99773.13;5072712;27;51159;-44
2021/12/04 14:13:10;;;;;;;;;2.75;1.50;;;;;22.89;38.98;99766.22;5067439;27;51156;-44
2021/12/04 14:15:36;;;;;;;;;5.00;3.75;;;;;22.91;39.14;99775.06;5071244;27;50992;-41
2021/12/04 14:18:11;;;;;;;;;2.50;1.00;;;;;22.88;38.78;99778.38;5074281;27;51091;-41
2021/12/04 14:20:39;;;;;;;;;2.00;2.00;;;;;22.85;39.01;99791.88;5073335;27;51218;-41
2021/12/04 14:23:05;;;;;;;;;1.25;1.25;;;;;22.77;39.01;99796.75;5073291;27;53544;-42
2021/12/04 14:25:31;;;;;;;;;1.75;1.75;;;;;22.71;39.30;99802.47;5067784;27;51241;-42
2021/12/04 14:27:59;;;;;;;;;4.75;3.00;;;;;22.65;39.58;99806.31;5073948;27;51114;-42
2021/12/04 14:30:32;;;;;;;;;2.00;2.00;;;;;22.58;39.50;99816.72;5069383;27;51262;-43